| time (UTC) | temp F | wind direction | speed knots | gust knots | rain 1hr in | rain 24hr in | rain mn in | humidity % | barometer mb |
| 20260507110505 | 47 | 273 | 1.7 | 4.3 | 0.02 | 0.35 | 0.26 | 95 | 1008.8 |
| 20260507110004 | 47 | 261 | 1.7 | 3.5 | 0.03 | 0.35 | 0.26 | 95 | 1008.7 |
| 20260507105502 | 47 | 263 | 0.9 | 3.5 | 0.03 | 0.35 | 0.26 | 96 | 1008.6 |
| 20260507105003 | 48 | 313 | 1.7 | 4.3 | 0.03 | 0.35 | 0.26 | 96 | 1008.8 |
| 20260507104506 | 48 | 258 | 0.9 | 4.3 | 0.04 | 0.35 | 0.26 | 96 | 1008.8 |
| 20260507104003 | 48 | 276 | 1.7 | 3.5 | 0.04 | 0.35 | 0.26 | 96 | 1008.6 |
| 20260507103503 | 48 | 281 | 1.7 | 3.5 | 0.05 | 0.35 | 0.26 | 96 | 1008.5 |
| 20260507103004 | 48 | 304 | 0.9 | 3.5 | 0.04 | 0.34 | 0.25 | 96 | 1008.2 |
| 20260507102504 | 48 | 245 | 0.9 | 2.6 | 0.05 | 0.34 | 0.25 | 96 | 1008.2 |
| 20260507102003 | 48 | 272 | 1.7 | 2.6 | 0.05 | 0.34 | 0.25 | 96 | 1008.4 |
| 20260507101504 | 48 | 290 | 1.7 | 1.7 | 0.04 | 0.33 | 0.24 | 96 | 1008.2 |
| 20260507101009 | 48 | 281 | 0.0 | 1.7 | 0.04 | 0.33 | 0.24 | 96 | 1007.8 |
| 20260507100502 | 48 | 324 | 0.0 | 1.7 | 0.04 | 0.33 | 0.24 | 96 | 1007.8 |
| 20260507100009 | 48 | 296 | 0.0 | 1.7 | 0.03 | 0.32 | 0.23 | 96 | 1007.8 |
| 20260507095505 | 49 | 283 | 0.9 | 1.7 | 0.03 | 0.32 | 0.23 | 96 | 1008.2 |
| 20260507095007 | 49 | 296 | 0.0 | 1.7 | 0.04 | 0.32 | 0.23 | 96 | 1007.7 |
| 20260507094504 | 49 | 280 | 0.0 | 1.7 | 0.03 | 0.31 | 0.22 | 96 | 1008.1 |
| 20260507094003 | 49 | 276 | 0.9 | 2.6 | 0.03 | 0.31 | 0.22 | 96 | 1008.2 |
| 20260507093503 | 49 | 321 | 0.9 | 3.5 | 0.02 | 0.30 | 0.21 | 96 | 1008.0 |
| 20260507093005 | 49 | 304 | 0.0 | 3.5 | 0.02 | 0.30 | 0.21 | 96 | 1007.9 |
| 20260507092509 | 49 | 311 | 0.9 | 1.7 | 0.01 | 0.29 | 0.20 | 96 | 1007.9 |
| 20260507092002 | 49 | 286 | 0.0 | 2.6 | 0.01 | 0.29 | 0.20 | 96 | 1007.8 |
| 20260507091506 | 49 | 284 | 0.9 | 2.6 | 0.02 | 0.29 | 0.20 | 96 | 1008.0 |
| 20260507091002 | 49 | 319 | 0.9 | 2.6 | 0.02 | 0.29 | 0.20 | 96 | 1007.8 |
| 20260507090505 | 49 | 273 | 0.0 | 2.6 | 0.03 | 0.29 | 0.20 | 96 | 1007.5 |
| 20260507090012 | 49 | 290 | 0.9 | 2.6 | 0.04 | 0.29 | 0.20 | 96 | 1007.6 |
| 20260507085506 | 49 | 309 | 0.9 | 6.1 | 0.05 | 0.29 | 0.20 | 96 | 1007.6 |
| 20260507085003 | 49 | 284 | 1.7 | 6.1 | 0.04 | 0.28 | 0.19 | 96 | 1008.0 |
| 20260507084516 | 49 | 286 | 1.7 | 5.2 | 0.05 | 0.28 | 0.19 | 96 | 1007.9 |
| 20260507084007 | 49 | 302 | 1.7 | 5.2 | 0.06 | 0.28 | 0.19 | 96 | 1007.7 |
| 20260507083503 | 49 | 32 | 1.7 | 5.2 | 0.06 | 0.28 | 0.19 | 96 | 1007.4 |
| 20260507083014 | 49 | 81 | 1.7 | 6.1 | 0.06 | 0.28 | 0.19 | 96 | 1007.2 |
| 20260507082503 | 49 | 279 | 1.7 | 6.1 | 0.06 | 0.28 | 0.19 | 96 | 1007.5 |
| 20260507082004 | 49 | 275 | 1.7 | 4.3 | 0.08 | 0.28 | 0.19 | 95 | 1007.6 |
| 20260507081506 | 49 | 323 | 2.6 | 4.3 | 0.09 | 0.27 | 0.18 | 95 | 1007.7 |
| 20260507081002 | 49 | 287 | 2.6 | 5.2 | 0.11 | 0.27 | 0.18 | 95 | 1007.6 |
| 20260507080505 | 50 | 311 | 1.7 | 5.2 | 0.10 | 0.26 | 0.17 | 95 | 1007.4 |
| 20260507080003 | 50 | 333 | 1.7 | 5.2 | 0.10 | 0.25 | 0.16 | 95 | 1007.5 |
| 20260507075502 | 50 | 285 | 2.6 | 7.0 | 0.10 | 0.24 | 0.15 | 95 | 1008.0 |
| 20260507075010 | 50 | 287 | 1.7 | 7.0 | 0.13 | 0.24 | 0.15 | 95 | 1007.7 |
| 20260507074515 | 50 | 268 | 2.6 | 3.5 | 0.14 | 0.23 | 0.14 | 95 | 1007.6 |
| 20260507074002 | 50 | 312 | 1.7 | 4.3 | 0.13 | 0.22 | 0.13 | 95 | 1007.4 |
| 20260507073502 | 50 | 282 | 0.9 | 4.3 | 0.13 | 0.22 | 0.13 | 94 | 1007.7 |
| 20260507073020 | 50 | 300 | 1.7 | 5.2 | 0.13 | 0.22 | 0.13 | 94 | 1007.8 |
| 20260507072512 | 51 | 300 | 2.6 | 5.2 | 0.13 | 0.22 | 0.13 | 94 | 1008.1 |
| 20260507072003 | 51 | 86 | 0.9 | 5.2 | 0.11 | 0.20 | 0.11 | 94 | 1007.4 |
| 20260507071507 | 51 | 306 | 1.7 | 5.2 | 0.09 | 0.18 | 0.09 | 94 | 1008.2 |
| 20260507071004 | 51 | 269 | 1.7 | 5.2 | 0.07 | 0.16 | 0.07 | 94 | 1008.2 |
| 20260507070504 | 51 | 271 | 1.7 | 5.2 | 0.07 | 0.16 | 0.07 | 94 | 1007.8 |
| 20260507070016 | 52 | 264 | 3.5 | 5.2 | 0.06 | 0.15 | 0.06 | 93 | 1007.9 |
| 20260507065503 | 52 | 317 | 0.9 | 2.6 | 0.05 | 0.14 | 0.05 | 92 | 1007.2 |
| 20260507065006 | 52 | 279 | 0.9 | 2.6 | 0.02 | 0.11 | 0.02 | 92 | 1007.0 |
| 20260507064507 | 52 | 271 | 1.7 | 2.6 | 0.00 | 0.09 | 0.00 | 92 | 1007.1 |
| 20260507064006 | 52 | 268 | 0.9 | 2.6 | 0.00 | 0.09 | 0.00 | 92 | 1006.6 |
| 20260507063508 | 52 | 300 | 0.0 | 2.6 | 0.00 | 0.09 | 0.00 | 92 | 1006.6 |
| 20260507063003 | 52 | 304 | 0.9 | 2.6 | 0.00 | 0.09 | 0.00 | 92 | 1006.5 |
| 20260507062503 | 52 | 276 | 0.9 | 4.3 | 0.00 | 0.09 | 0.00 | 92 | 1006.8 |
| 20260507062006 | 52 | 317 | 0.9 | 4.3 | 0.00 | 0.09 | 0.00 | 92 | 1006.8 |
| 20260507061524 | 52 | 304 | 1.7 | 2.6 | 0.00 | 0.09 | 0.00 | 92 | 1007.1 |
| 20260507061005 | 52 | 297 | 1.7 | 2.6 | 0.00 | 0.09 | 0.00 | 92 | 1007.0 |
| 20260507060505 | 53 | 292 | 0.0 | 3.5 | 0.00 | 0.09 | 0.00 | 92 | 1007.0 |
| 20260507060006 | 53 | 275 | 1.7 | 3.5 | 0.00 | 0.09 | 0.00 | 92 | 1007.1 |
| 20260507055505 | 53 | 304 | 0.9 | 3.5 | 0.00 | 0.09 | 0.00 | 92 | 1006.9 |
| 20260507055004 | 53 | 253 | 1.7 | 4.3 | 0.00 | 0.09 | 0.00 | 92 | 1007.2 |
| 20260507054508 | 53 | 273 | 0.9 | 4.3 | 0.00 | 0.09 | 0.00 | 92 | 1007.3 |
| 20260507054004 | 53 | 272 | 1.7 | 4.3 | 0.00 | 0.09 | 0.00 | 92 | 1007.2 |
| 20260507053502 | 53 | 288 | 1.7 | 5.2 | 0.00 | 0.09 | 0.00 | 92 | 1007.2 |
| 20260507053010 | 53 | 348 | 1.7 | 3.5 | 0.00 | 0.09 | 0.00 | 92 | 1007.3 |
| 20260507052506 | 53 | 280 | 1.7 | 4.3 | 0.00 | 0.09 | 0.00 | 92 | 1007.3 |
| 20260507052007 | 54 | 300 | 1.7 | 4.3 | 0.00 | 0.09 | 0.00 | 92 | 1007.4 |
| 20260507051508 | 54 | 302 | 0.9 | 3.5 | 0.00 | 0.09 | 0.00 | 92 | 1007.6 |
| 20260507051011 | 54 | 293 | 2.6 | 3.5 | 0.00 | 0.09 | 0.00 | 92 | 1007.8 |
| 20260507050506 | 54 | 274 | 0.9 | 2.6 | 0.00 | 0.09 | 0.00 | 92 | 1007.7 |
| 20260507050024 | 54 | 270 | 1.7 | 2.6 | 0.00 | 0.09 | 0.00 | 92 | 1007.5 |
| 20260507045509 | 54 | 284 | 1.7 | 3.5 | 0.00 | 0.09 | 0.00 | 92 | 1007.6 |
| 20260507045007 | 54 | 271 | 1.7 | 4.3 | 0.00 | 0.09 | 0.00 | 92 | 1007.5 |
| 20260507044513 | 54 | 290 | 1.7 | 7.8 | 0.00 | 0.09 | 0.00 | 92 | 1007.5 |
| 20260507044011 | 55 | 283 | 0.9 | 7.8 | 0.00 | 0.09 | 0.00 | 93 | 1007.6 |
| 20260507043507 | 55 | 275 | 1.7 | 5.2 | 0.00 | 0.09 | 0.00 | 93 | 1007.7 |
| 20260507043012 | 55 | 281 | 1.7 | 2.6 | 0.00 | 0.09 | 0.00 | 93 | 1007.6 |
| 20260507042508 | 55 | 283 | 1.7 | 4.3 | 0.00 | 0.09 | 0.00 | 93 | 1007.5 |
| 20260507042004 | 55 | 275 | 1.7 | 4.3 | 0.00 | 0.09 | 0.00 | 93 | 1007.5 |
| 20260507041518 | 55 | 273 | 1.7 | 5.2 | 0.00 | 0.09 | 0.00 | 94 | 1007.5 |
| 20260507041006 | 55 | 297 | 2.6 | 5.2 | 0.00 | 0.09 | 0.00 | 94 | 1007.6 |
| 20260507040504 | 56 | 277 | 2.6 | 7.8 | 0.00 | 0.09 | 0.00 | 95 | 1007.8 |
| 20260507040021 | 56 | 300 | 3.5 | 7.8 | 0.00 | 0.09 | 0.00 | 96 | 1007.6 |
| 20260507035506 | 57 | 281 | 2.6 | 6.1 | 0.00 | 0.09 | 0.09 | 97 | 1007.6 |
| 20260507035010 | 57 | 307 | 3.5 | 6.1 | 0.00 | 0.09 | 0.09 | 97 | 1007.6 |
| 20260507034513 | 57 | 267 | 3.5 | 5.2 | 0.00 | 0.09 | 0.09 | 97 | 1007.5 |
| 20260507034010 | 57 | 297 | 2.6 | 3.5 | 0.00 | 0.09 | 0.09 | 97 | 1007.6 |
| 20260507033503 | 57 | 281 | 2.6 | 3.5 | 0.00 | 0.09 | 0.09 | 97 | 1007.7 |
| 20260507033013 | 56 | 277 | 1.7 | 3.5 | 0.00 | 0.09 | 0.09 | 97 | 1007.6 |
| 20260507032504 | 56 | 250 | 0.0 | 1.7 | 0.00 | 0.09 | 0.09 | 97 | 1007.2 |
| 20260507032007 | 56 | 274 | 0.0 | 1.7 | 0.00 | 0.09 | 0.09 | 97 | 1007.3 |
| 20260507031514 | 56 | 274 | 0.0 | 0.9 | 0.00 | 0.09 | 0.09 | 97 | 1007.4 |
| 20260507031006 | 56 | 274 | 0.0 | 1.7 | 0.00 | 0.09 | 0.09 | 97 | 1007.5 |
| 20260507030508 | 57 | 274 | 0.0 | 1.7 | 0.00 | 0.09 | 0.09 | 97 | 1007.6 |
| 20260507030018 | 56 | 214 | 0.0 | 1.7 | 0.00 | 0.09 | 0.09 | 97 | 1007.5 |
| 20260507025510 | 56 | 281 | 0.0 | 2.6 | 0.00 | 0.09 | 0.09 | 97 | 1007.5 |
| 20260507025013 | 56 | 281 | 0.0 | 2.6 | 0.00 | 0.09 | 0.09 | 97 | 1007.5 |
| 20260507024527 | 56 | 306 | 0.0 | 2.6 | 0.00 | 0.09 | 0.09 | 97 | 1007.4 |
| 20260507024006 | 56 | 306 | 0.0 | 2.6 | 0.00 | 0.09 | 0.09 | 97 | 1007.4 |
| 20260507023505 | 56 | 252 | 0.9 | 6.1 | 0.00 | 0.09 | 0.09 | 97 | 1007.5 |
| 20260507023019 | 56 | 267 | 1.7 | 6.1 | 0.00 | 0.09 | 0.09 | 97 | 1007.5 |
| 20260507022511 | 56 | 250 | 2.6 | 5.2 | 0.00 | 0.09 | 0.09 | 97 | 1007.6 |
| 20260507022005 | 56 | 301 | 1.7 | 5.2 | 0.00 | 0.09 | 0.09 | 97 | 1007.6 |
| 20260507021519 | 56 | 232 | 0.9 | 5.2 | 0.00 | 0.09 | 0.09 | 97 | 1007.5 |
| 20260507021003 | 56 | 261 | 1.7 | 5.2 | 0.00 | 0.09 | 0.09 | 97 | 1007.6 |
| 20260507020503 | 56 | 250 | 1.7 | 4.3 | 0.00 | 0.09 | 0.09 | 97 | 1007.8 |
| 20260507020004 | 56 | 271 | 1.7 | 6.1 | 0.00 | 0.09 | 0.09 | 97 | 1007.9 |
| 20260507015506 | 56 | 249 | 1.7 | 6.1 | 0.00 | 0.09 | 0.09 | 97 | 1007.7 |
| 20260507015003 | 56 | 179 | 0.9 | 3.5 | 0.00 | 0.09 | 0.09 | 97 | 1007.6 |
| 20260507014504 | 57 | 248 | 0.9 | 2.6 | 0.00 | 0.09 | 0.09 | 97 | 1007.7 |
| 20260507014002 | 57 | 259 | 0.9 | 3.5 | 0.00 | 0.09 | 0.09 | 97 | 1007.7 |
| 20260507013502 | 56 | 288 | 1.7 | 5.2 | 0.00 | 0.09 | 0.09 | 97 | 1007.6 |
| 20260507013008 | 56 | 213 | 0.9 | 5.2 | 0.00 | 0.09 | 0.09 | 97 | 1007.2 |
| 20260507012505 | 56 | 99 | 0.9 | 4.3 | 0.00 | 0.09 | 0.09 | 97 | 1007.3 |
| 20260507012003 | 57 | 225 | 0.9 | 7.8 | 0.00 | 0.09 | 0.09 | 97 | 1007.2 |
| 20260507011515 | 57 | 130 | 0.9 | 7.8 | 0.00 | 0.09 | 0.09 | 97 | 1007.4 |
| 20260507011005 | 56 | 229 | 1.7 | 4.3 | 0.00 | 0.09 | 0.09 | 97 | 1007.5 |
| 20260507010510 | 57 | 238 | 0.9 | 3.5 | 0.00 | 0.09 | 0.09 | 97 | 1007.4 |
| 20260507010007 | 57 | 242 | 0.9 | 3.5 | 0.00 | 0.09 | 0.09 | 97 | 1007.5 |
| 20260507005503 | 57 | 267 | 1.7 | 5.2 | 0.00 | 0.09 | 0.09 | 97 | 1007.5 |
| 20260507005007 | 57 | 263 | 0.9 | 5.2 | 0.00 | 0.09 | 0.09 | 97 | 1007.6 |
| 20260507004503 | 57 | 294 | 1.7 | 5.2 | 0.00 | 0.09 | 0.09 | 97 | 1007.6 |
| 20260507004003 | 57 | 201 | 0.9 | 6.1 | 0.00 | 0.09 | 0.09 | 97 | 1007.6 |
| 20260507003503 | 57 | 223 | 0.0 | 6.1 | 0.00 | 0.09 | 0.09 | 97 | 1007.7 |
| 20260507003007 | 57 | 244 | 0.9 | 3.5 | 0.00 | 0.09 | 0.09 | 97 | 1007.8 |
| 20260507002503 | 57 | 248 | 1.7 | 3.5 | 0.00 | 0.09 | 0.09 | 97 | 1007.7 |
| 20260507002002 | 56 | 267 | 1.7 | 3.5 | 0.00 | 0.09 | 0.09 | 97 | 1007.6 |
| 20260507001509 | 57 | 245 | 0.9 | 3.5 | 0.00 | 0.09 | 0.09 | 97 | 1007.6 |
| 20260507001004 | 56 | 246 | 1.7 | 3.5 | 0.00 | 0.09 | 0.09 | 97 | 1007.6 |
| 20260507000503 | 56 | 271 | 0.9 | 7.0 | 0.00 | 0.09 | 0.09 | 97 | 1007.5 |
| 20260507000011 | 56 | 238 | 2.6 | 7.0 | 0.00 | 0.09 | 0.09 | 97 | 1007.6 |
| 20260506235506 | 56 | 161 | 1.7 | 8.7 | 0.00 | 0.09 | 0.09 | 96 | 1007.4 |
| 20260506235002 | 56 | 271 | 1.7 | 8.7 | 0.00 | 0.09 | 0.09 | 96 | 1007.4 |
| 20260506234504 | 56 | 192 | 1.7 | 4.3 | 0.00 | 0.09 | 0.09 | 96 | 1007.4 |
| 20260506234006 | 56 | 246 | 1.7 | 4.3 | 0.00 | 0.09 | 0.09 | 96 | 1007.4 |
| 20260506233503 | 56 | 214 | 0.9 | 6.1 | 0.00 | 0.09 | 0.09 | 96 | 1007.3 |
| 20260506233005 | 56 | 248 | 2.6 | 6.1 | 0.00 | 0.09 | 0.09 | 96 | 1007.3 |
| 20260506232503 | 56 | 245 | 0.9 | 4.3 | 0.00 | 0.09 | 0.09 | 96 | 1007.3 |
| 20260506232002 | 56 | 301 | 1.7 | 4.3 | 0.00 | 0.09 | 0.09 | 96 | 1007.3 |
| 20260506231508 | 56 | 254 | 0.9 | 4.3 | 0.01 | 0.09 | 0.09 | 96 | 1007.3 |
| 20260506231003 | 56 | 253 | 1.7 | 4.3 | 0.01 | 0.09 | 0.09 | 96 | 1007.4 |
| 20260506230503 | 56 | 257 | 0.9 | 5.2 | 0.01 | 0.09 | 0.09 | 96 | 1007.4 |
| 20260506230013 | 56 | 261 | 2.6 | 5.2 | 0.01 | 0.09 | 0.09 | 96 | 1007.3 |
| 20260506225503 | 56 | 227 | 1.7 | 3.5 | 0.01 | 0.09 | 0.09 | 96 | 1007.2 |
| 20260506225005 | 56 | 227 | 0.9 | 7.0 | 0.01 | 0.09 | 0.09 | 96 | 1007.2 |
| 20260506224514 | 56 | 231 | 3.5 | 7.0 | 0.01 | 0.09 | 0.09 | 95 | 1007.2 |
| 20260506224006 | 56 | 254 | 0.9 | 7.8 | 0.01 | 0.09 | 0.09 | 95 | 1007.2 |
| 20260506223501 | 57 | 246 | 2.6 | 7.0 | 0.01 | 0.09 | 0.09 | 95 | 1007.1 |
| 20260506223017 | 57 | 220 | 1.7 | 3.5 | 0.02 | 0.09 | 0.09 | 95 | 1007.2 |
| 20260506222506 | 57 | 188 | 1.7 | 5.2 | 0.02 | 0.09 | 0.09 | 95 | 1007.2 |
| 20260506222006 | 57 | 255 | 0.9 | 5.2 | 0.02 | 0.09 | 0.09 | 95 | 1007.1 |
| 20260506221505 | 57 | 54 | 0.9 | 7.0 | 0.02 | 0.08 | 0.08 | 95 | 1007.1 |
| 20260506221003 | 57 | 298 | 2.6 | 7.0 | 0.03 | 0.08 | 0.08 | 95 | 1007.1 |
| 20260506220503 | 57 | 204 | 0.9 | 7.8 | 0.03 | 0.08 | 0.08 | 95 | 1007.0 |
| 20260506220014 | 57 | 273 | 2.6 | 7.8 | 0.03 | 0.08 | 0.08 | 95 | 1007.1 |
| 20260506215505 | 57 | 269 | 2.6 | 9.6 | 0.03 | 0.08 | 0.08 | 95 | 1007.1 |
| 20260506215009 | 57 | 219 | 2.6 | 9.6 | 0.03 | 0.08 | 0.08 | 95 | 1007.0 |
| 20260506214502 | 57 | 252 | 0.9 | 7.8 | 0.03 | 0.08 | 0.08 | 95 | 1007.1 |
| 20260506214002 | 57 | 270 | 1.7 | 7.8 | 0.03 | 0.08 | 0.08 | 95 | 1007.1 |
| 20260506213511 | 57 | 238 | 1.7 | 7.8 | 0.03 | 0.08 | 0.08 | 95 | 1007.2 |
| 20260506213027 | 57 | 237 | 2.6 | 7.0 | 0.02 | 0.07 | 0.07 | 95 | 1007.2 |
| 20260506212502 | 57 | 265 | 0.9 | 3.5 | 0.02 | 0.07 | 0.07 | 95 | 1007.3 |
| 20260506212006 | 57 | 219 | 0.9 | 2.6 | 0.02 | 0.07 | 0.07 | 95 | 1007.4 |
| 20260506211521 | 58 | 313 | 0.9 | 7.0 | 0.01 | 0.06 | 0.06 | 94 | 1007.4 |
| 20260506211007 | 58 | 199 | 3.5 | 6.1 | 0.00 | 0.05 | 0.05 | 94 | 1007.5 |
| 20260506210503 | 58 | 173 | 0.9 | 7.0 | 0.00 | 0.05 | 0.05 | 94 | 1007.5 |
| 20260506210006 | 58 | 86 | 0.9 | 7.0 | 0.00 | 0.05 | 0.05 | 94 | 1007.5 |
| 20260506205502 | 58 | 264 | 0.0 | 4.3 | 0.00 | 0.05 | 0.05 | 94 | 1007.5 |
| 20260506205002 | 58 | 190 | 0.9 | 2.6 | 0.00 | 0.05 | 0.05 | 94 | 1007.6 |
| 20260506204510 | 58 | 202 | 0.9 | 4.3 | 0.00 | 0.05 | 0.05 | 94 | 1007.7 |
| 20260506204013 | 58 | 252 | 0.9 | 7.8 | 0.00 | 0.05 | 0.05 | 94 | 1007.6 |
| 20260506203508 | 58 | 209 | 0.9 | 7.8 | 0.00 | 0.05 | 0.05 | 94 | 1007.7 |
| 20260506203016 | 58 | 114 | 0.0 | 7.0 | 0.00 | 0.05 | 0.05 | 94 | 1007.8 |
| 20260506202507 | 58 | 286 | 3.5 | 7.0 | 0.00 | 0.05 | 0.05 | 94 | 1007.8 |
| 20260506202010 | 58 | 228 | 0.9 | 6.1 | 0.01 | 0.05 | 0.05 | 94 | 1007.8 |
| 20260506201508 | 58 | 211 | 0.9 | 6.1 | 0.01 | 0.05 | 0.05 | 94 | 1007.8 |
| 20260506201004 | 58 | 259 | 0.9 | 3.5 | 0.01 | 0.05 | 0.05 | 94 | 1007.8 |
| 20260506200502 | 58 | 273 | 0.9 | 6.1 | 0.01 | 0.05 | 0.05 | 94 | 1007.9 |
| 20260506200006 | 58 | 266 | 2.6 | 5.2 | 0.02 | 0.05 | 0.05 | 94 | 1007.9 |
| 20260506195503 | 58 | 70 | 0.9 | 4.3 | 0.03 | 0.05 | 0.05 | 94 | 1007.9 |
| 20260506195002 | 58 | 316 | 0.9 | 7.0 | 0.04 | 0.05 | 0.05 | 94 | 1008.1 |
| 20260506194502 | 58 | 348 | 0.9 | 7.8 | 0.04 | 0.05 | 0.05 | 93 | 1008.1 |
| 20260506194002 | 58 | 169 | 1.7 | 7.8 | 0.05 | 0.05 | 0.05 | 93 | 1008.2 |
| 20260506193501 | 58 | 256 | 2.6 | 7.8 | 0.05 | 0.05 | 0.05 | 93 | 1008.3 |
| 20260506193001 | 58 | 167 | 1.7 | 7.0 | 0.05 | 0.05 | 0.05 | 93 | 1008.2 |
| 20260506192503 | 58 | 211 | 1.7 | 5.2 | 0.05 | 0.05 | 0.05 | 93 | 1008.2 |
| 20260506192003 | 58 | 240 | 0.9 | 5.2 | 0.04 | 0.04 | 0.04 | 93 | 1008.5 |
| 20260506191506 | 58 | 177 | 2.6 | 5.2 | 0.04 | 0.04 | 0.04 | 92 | 1008.4 |
| 20260506191003 | 58 | 277 | 1.7 | 5.2 | 0.04 | 0.04 | 0.04 | 92 | 1008.5 |
| 20260506190502 | 58 | 304 | 0.9 | 6.1 | 0.04 | 0.04 | 0.04 | 91 | 1008.5 |
| 20260506190007 | 58 | 290 | 1.7 | 7.0 | 0.03 | 0.03 | 0.03 | 91 | 1008.6 |
| 20260506185502 | 58 | 281 | 2.6 | 7.0 | 0.02 | 0.02 | 0.02 | 90 | 1008.6 |
| 20260506185003 | 59 | 34 | 0.0 | 9.6 | 0.01 | 0.01 | 0.01 | 89 | 1008.4 |
| 20260506184507 | 59 | 219 | 1.7 | 9.6 | 0.01 | 0.01 | 0.01 | 89 | 1008.4 |
| 20260506184004 | 59 | 291 | 0.9 | 5.2 | 0.00 | 0.00 | 0.00 | 88 | 1008.5 |
| 20260506183504 | 59 | 175 | 0.9 | 7.8 | 0.00 | 0.00 | 0.00 | 88 | 1008.7 |
| 20260506183006 | 59 | 77 | 1.7 | 10.4 | 0.00 | 0.00 | 0.00 | 87 | 1008.6 |
| 20260506182506 | 60 | 324 | 2.6 | 10.4 | 0.00 | 0.00 | 0.00 | 86 | 1008.9 |
| 20260506182003 | 60 | 300 | 1.7 | 8.7 | 0.00 | 0.00 | 0.00 | 85 | 1009.0 |
| 20260506181503 | 60 | 165 | 1.7 | 10.4 | 0.00 | 0.00 | 0.00 | 85 | 1009.1 |
| 20260506181004 | 60 | 360 | 2.6 | 10.4 | 0.00 | 0.00 | 0.00 | 83 | 1009.4 |
| 20260506180503 | 61 | 360 | 3.5 | 8.7 | 0.00 | 0.00 | 0.00 | 81 | 1009.5 |
| 20260506180007 | 61 | 315 | 1.7 | 7.8 | 0.00 | 0.00 | 0.00 | 81 | 1009.4 |
| 20260506175503 | 62 | 267 | 1.7 | 7.0 | 0.00 | 0.00 | 0.00 | 80 | 1009.4 |
| 20260506175002 | 62 | 101 | 0.9 | 8.7 | 0.00 | 0.00 | 0.00 | 80 | 1009.5 |
| 20260506174504 | 62 | 233 | 2.6 | 8.7 | 0.00 | 0.00 | 0.00 | 79 | 1009.6 |
| 20260506174003 | 62 | 257 | 2.6 | 7.0 | 0.00 | 0.00 | 0.00 | 78 | 1009.7 |
| 20260506173504 | 62 | 310 | 1.7 | 7.0 | 0.00 | 0.00 | 0.00 | 78 | 1009.8 |
| 20260506173009 | 63 | 254 | 1.7 | 9.6 | 0.00 | 0.00 | 0.00 | 77 | 1009.8 |
| 20260506172504 | 63 | 242 | 2.6 | 9.6 | 0.00 | 0.00 | 0.00 | 77 | 1009.8 |
| 20260506172004 | 63 | 279 | 4.3 | 9.6 | 0.00 | 0.00 | 0.00 | 76 | 1009.7 |
| 20260506171521 | 63 | 258 | 2.6 | 8.7 | 0.00 | 0.00 | 0.00 | 76 | 1009.8 |
| 20260506171003 | 64 | 360 | 4.3 | 8.7 | 0.00 | 0.00 | 0.00 | 75 | 1009.8 |
| 20260506170503 | 65 | 240 | 5.2 | 11.3 | 0.00 | 0.00 | 0.00 | 74 | 1009.9 |
| 20260506170003 | 65 | 185 | 2.6 | 11.3 | 0.00 | 0.00 | 0.00 | 73 | 1009.8 |
| 20260506165503 | 66 | 260 | 2.6 | 5.2 | 0.00 | 0.00 | 0.00 | 74 | 1009.8 |
| 20260506165003 | 65 | 229 | 2.6 | 7.0 | 0.00 | 0.00 | 0.00 | 73 | 1009.9 |
| 20260506164504 | 65 | 22 | 2.6 | 8.7 | 0.00 | 0.00 | 0.00 | 73 | 1009.8 |
| 20260506164003 | 66 | 228 | 3.5 | 13.0 | 0.00 | 0.00 | 0.00 | 72 | 1009.7 |
| 20260506163505 | 65 | 213 | 4.3 | 13.0 | 0.00 | 0.00 | 0.00 | 73 | 1009.8 |
| 20260506163004 | 65 | 202 | 1.7 | 7.0 | 0.00 | 0.00 | 0.00 | 74 | 1009.8 |
| 20260506162503 | 65 | 230 | 1.7 | 10.4 | 0.00 | 0.00 | 0.00 | 74 | 1009.9 |
| 20260506162008 | 65 | 260 | 4.3 | 10.4 | 0.00 | 0.00 | 0.00 | 73 | 1009.9 |
| 20260506161504 | 65 | 250 | 3.5 | 15.6 | 0.00 | 0.00 | 0.00 | 74 | 1010.1 |
| 20260506161003 | 65 | 251 | 2.6 | 15.6 | 0.00 | 0.00 | 0.00 | 73 | 1010.2 |
| 20260506160503 | 65 | 241 | 4.3 | 11.3 | 0.00 | 0.00 | 0.00 | 72 | 1010.3 |
| 20260506160023 | 66 | 198 | 4.3 | 10.4 | 0.00 | 0.00 | 0.00 | 72 | 1010.3 |
| 20260506155504 | 66 | 170 | 4.3 | 10.4 | 0.00 | 0.00 | 0.00 | 71 | 1010.3 |
| 20260506155003 | 67 | 234 | 3.5 | 7.8 | 0.00 | 0.00 | 0.00 | 69 | 1010.4 |
| 20260506154503 | 67 | 309 | 1.7 | 9.6 | 0.00 | 0.00 | 0.00 | 69 | 1010.3 |
| 20260506154003 | 67 | 222 | 0.9 | 9.6 | 0.00 | 0.00 | 0.00 | 70 | 1010.3 |
| 20260506153502 | 68 | 325 | 2.6 | 10.4 | 0.00 | 0.00 | 0.00 | 69 | 1010.4 |
| 20260506153006 | 68 | 273 | 2.6 | 10.4 | 0.00 | 0.00 | 0.00 | 70 | 1010.3 |
| 20260506152503 | 68 | 245 | 2.6 | 9.6 | 0.00 | 0.00 | 0.00 | 70 | 1010.4 |
| 20260506152004 | 68 | 263 | 5.2 | 9.6 | 0.00 | 0.00 | 0.00 | 68 | 1010.4 |
| 20260506151508 | 68 | 303 | 3.5 | 13.9 | 0.00 | 0.00 | 0.00 | 70 | 1010.5 |
| 20260506151004 | 68 | 247 | 2.6 | 13.9 | 0.00 | 0.00 | 0.00 | 69 | 1010.4 |
| 20260506150511 | 67 | 255 | 3.5 | 13.0 | 0.00 | 0.00 | 0.00 | 70 | 1010.6 |
| 20260506150007 | 67 | 282 | 4.3 | 13.0 | 0.00 | 0.00 | 0.00 | 71 | 1010.5 |
| 20260506145504 | 67 | 292 | 6.1 | 9.6 | 0.00 | 0.00 | 0.00 | 72 | 1010.6 |
| 20260506145012 | 66 | 269 | 3.5 | 9.6 | 0.00 | 0.00 | 0.00 | 72 | 1010.6 |
| 20260506144505 | 66 | 291 | 2.6 | 12.2 | 0.00 | 0.00 | 0.00 | 72 | 1010.7 |
| 20260506144002 | 66 | 244 | 5.2 | 12.2 | 0.00 | 0.00 | 0.00 | 72 | 1010.7 |
| 20260506143502 | 66 | 292 | 2.6 | 17.4 | 0.00 | 0.00 | 0.00 | 72 | 1010.7 |
| 20260506143012 | 66 | 297 | 5.2 | 13.0 | 0.00 | 0.00 | 0.00 | 71 | 1010.6 |
| 20260506142503 | 66 | 301 | 3.5 | 10.4 | 0.00 | 0.00 | 0.00 | 72 | 1010.8 |
| 20260506142003 | 66 | 198 | 4.3 | 8.7 | 0.00 | 0.00 | 0.00 | 72 | 1010.9 |
| 20260506141509 | 66 | 228 | 3.5 | 9.6 | 0.00 | 0.00 | 0.00 | 73 | 1010.8 |
| 20260506141004 | 66 | 220 | 2.6 | 9.6 | 0.00 | 0.00 | 0.00 | 71 | 1010.8 |
| 20260506140503 | 67 | 250 | 4.3 | 8.7 | 0.00 | 0.00 | 0.00 | 71 | 1010.7 |
| 20260506140013 | 66 | 265 | 2.6 | 8.7 | 0.00 | 0.00 | 0.00 | 74 | 1010.7 |
| 20260506135507 | 65 | 215 | 1.7 | 9.6 | 0.00 | 0.00 | 0.00 | 75 | 1010.6 |
| 20260506135004 | 65 | 241 | 4.3 | 10.4 | 0.00 | 0.00 | 0.00 | 74 | 1010.6 |
| 20260506134514 | 65 | 255 | 5.2 | 10.4 | 0.00 | 0.00 | 0.00 | 74 | 1010.6 |
| 20260506134010 | 65 | 249 | 2.6 | 10.4 | 0.00 | 0.00 | 0.00 | 75 | 1010.6 |
| 20260506133502 | 64 | 196 | 4.3 | 8.7 | 0.00 | 0.00 | 0.00 | 75 | 1010.7 |
| 20260506133007 | 64 | 243 | 3.5 | 11.3 | 0.00 | 0.00 | 0.00 | 77 | 1010.6 |
| 20260506132504 | 63 | 273 | 3.5 | 11.3 | 0.00 | 0.00 | 0.00 | 76 | 1010.7 |
| 20260506132008 | 64 | 258 | 4.3 | 11.3 | 0.00 | 0.00 | 0.00 | 76 | 1010.8 |
| 20260506131513 | 64 | 273 | 3.5 | 11.3 | 0.00 | 0.00 | 0.00 | 76 | 1010.8 |
| 20260506131002 | 63 | 281 | 1.7 | 10.4 | 0.00 | 0.00 | 0.00 | 78 | 1010.8 |
| 20260506130503 | 63 | 200 | 4.3 | 13.0 | 0.00 | 0.00 | 0.00 | 77 | 1011.0 |
| 20260506130005 | 63 | 278 | 4.3 | 13.0 | 0.00 | 0.00 | 0.00 | 78 | 1011.1 |
| 20260506125505 | 63 | 217 | 5.2 | 11.3 | 0.00 | 0.00 | 0.00 | 77 | 1011.2 |
| 20260506125005 | 63 | 257 | 5.2 | 12.2 | 0.00 | 0.00 | 0.00 | 77 | 1011.1 |
| 20260506124514 | 63 | 207 | 2.6 | 12.2 | 0.00 | 0.00 | 0.00 | 79 | 1011.0 |
| 20260506124002 | 62 | 261 | 4.3 | 11.3 | 0.00 | 0.00 | 0.00 | 79 | 1011.0 |
| 20260506123506 | 62 | 269 | 3.5 | 11.3 | 0.00 | 0.00 | 0.00 | 80 | 1011.0 |
| 20260506123020 | 62 | 298 | 2.6 | 9.6 | 0.00 | 0.00 | 0.00 | 82 | 1011.0 |
| 20260506122509 | 61 | 241 | 3.5 | 9.6 | 0.00 | 0.00 | 0.00 | 82 | 1011.0 |
| 20260506122012 | 61 | 294 | 4.3 | 10.4 | 0.00 | 0.00 | 0.00 | 82 | 1011.0 |
| 20260506121507 | 61 | 261 | 2.6 | 10.4 | 0.00 | 0.00 | 0.00 | 82 | 1011.0 |
| 20260506121003 | 61 | 257 | 1.7 | 8.7 | 0.00 | 0.00 | 0.00 | 82 | 1010.9 |
| 20260506120507 | 61 | 173 | 2.6 | 8.7 | 0.00 | 0.00 | 0.00 | 83 | 1011.0 |
| 20260506120008 | 61 | 250 | 3.5 | 7.8 | 0.00 | 0.00 | 0.00 | 83 | 1010.9 |
| 20260506115503 | 60 | 226 | 2.6 | 7.8 | 0.00 | 0.00 | 0.00 | 84 | 1011.1 |
| 20260506115006 | 60 | 240 | 4.3 | 13.9 | 0.00 | 0.00 | 0.00 | 85 | 1010.9 |
| 20260506114509 | 60 | 227 | 2.6 | 13.9 | 0.00 | 0.00 | 0.00 | 85 | 1011.0 |
| 20260506114005 | 59 | 267 | 1.7 | 7.0 | 0.00 | 0.00 | 0.00 | 86 | 1011.3 |
| 20260506113505 | 59 | 256 | 1.7 | 7.8 | 0.00 | 0.00 | 0.00 | 86 | 1011.2 |
| 20260506113008 | 59 | 265 | 2.6 | 7.8 | 0.00 | 0.00 | 0.00 | 87 | 1011.3 |
| 20260506112507 | 59 | 215 | 3.5 | 6.1 | 0.00 | 0.00 | 0.00 | 87 | 1011.3 |
| 20260506112009 | 58 | 360 | 0.9 | 5.2 | 0.00 | 0.00 | 0.00 | 88 | 1011.3 |
| 20260506111524 | 58 | 360 | 1.7 | 9.6 | 0.00 | 0.00 | 0.00 | 88 | 1011.1 |
| 20260506111004 | 58 | 242 | 4.3 | 10.4 | 0.00 | 0.00 | 0.00 | 89 | 1011.2 |